createdAt,value
2023-02-15T00:00:50.276Z,25.40
2023-02-15T00:05:57.580Z,23.22
2023-02-15T00:08:29.911Z,22.22
2023-02-15T00:11:12.260Z,22.90
2023-02-15T00:13:43.824Z,22.22
2023-02-15T00:16:15.930Z,21.37
2023-02-15T00:18:48.214Z,21.50
2023-02-15T00:21:20.499Z,22.05
2023-02-15T00:23:54.333Z,22.58
2023-02-15T00:26:28.837Z,24.00
2023-02-15T00:29:03.408Z,23.00
2023-02-15T00:31:36.429Z,23.30
2023-02-15T00:34:14.693Z,24.37
2023-02-15T00:36:49.001Z,25.02
2023-02-15T00:39:23.076Z,24.52
2023-02-15T00:41:55.390Z,25.43
2023-02-15T00:44:29.299Z,25.00
2023-02-15T00:47:01.263Z,26.33
2023-02-15T00:49:39.931Z,25.85
2023-02-15T00:52:14.430Z,26.07
2023-02-15T00:54:48.844Z,27.22
2023-02-15T00:57:21.001Z,28.32
2023-02-15T00:59:54.806Z,28.35
2023-02-15T01:02:27.226Z,28.65
2023-02-15T01:04:59.856Z,29.30
2023-02-15T01:07:36.920Z,28.98
2023-02-15T01:10:09.879Z,29.87
2023-02-15T01:12:41.686Z,29.65
2023-02-15T01:15:14.943Z,29.52
2023-02-15T01:17:48.509Z,31.10
2023-02-15T01:20:26.381Z,30.85
2023-02-15T01:22:59.483Z,28.85
2023-02-15T01:25:31.388Z,30.40
2023-02-15T01:28:05.501Z,29.82
2023-02-15T01:30:37.375Z,30.80
2023-02-15T01:33:11.740Z,29.85
2023-02-15T01:35:46.001Z,31.65
2023-02-15T01:38:38.431Z,30.95
2023-02-15T01:41:25.449Z,30.60
2023-02-15T01:44:03.589Z,30.55
2023-02-15T01:46:39.907Z,30.35
2023-02-15T01:49:20.077Z,28.15
2023-02-15T01:51:54.411Z,29.75
2023-02-15T01:54:32.940Z,29.72
2023-02-15T01:57:08.952Z,30.60
2023-02-15T01:59:42.862Z,30.80
2023-02-15T02:02:18.113Z,30.55
2023-02-15T02:04:55.278Z,29.60
2023-02-15T02:07:34.016Z,28.95
2023-02-15T02:10:07.621Z,30.65
2023-02-15T02:12:42.540Z,30.30
2023-02-15T02:15:15.533Z,30.72
2023-02-15T02:17:57.583Z,29.80
2023-02-15T02:20:59.449Z,31.10
2023-02-15T02:23:55.933Z,30.65
2023-02-15T02:26:49.969Z,29.60
2023-02-15T02:29:28.330Z,29.02
2023-02-15T02:32:36.851Z,29.55
2023-02-15T02:35:32.784Z,28.45
2023-02-15T02:38:09.039Z,30.00
2023-02-15T02:40:59.064Z,29.27
2023-02-15T02:43:39.992Z,31.02
2023-02-15T02:46:18.723Z,32.38
2023-02-15T02:48:53.196Z,33.10
2023-02-15T02:51:26.173Z,34.78
2023-02-15T02:54:03.117Z,34.90
2023-02-15T02:56:39.908Z,32.42
2023-02-15T02:59:27.222Z,32.90
2023-02-15T03:02:02.972Z,30.82
2023-02-15T03:04:36.739Z,30.77
2023-02-15T03:07:12.377Z,29.85
2023-02-15T03:09:50.436Z,29.55
2023-02-15T03:12:25.547Z,30.12
2023-02-15T03:15:00.994Z,29.25
2023-02-15T03:17:38.125Z,28.73
2023-02-15T03:20:16.249Z,30.68
2023-02-15T03:22:55.794Z,29.67
2023-02-15T03:25:44.705Z,30.05
2023-02-15T03:28:21.261Z,30.17
2023-02-15T03:30:54.787Z,30.77
2023-02-15T03:33:28.204Z,30.25
2023-02-15T03:36:20.203Z,32.80
2023-02-15T03:39:02.548Z,32.38
2023-02-15T03:41:36.490Z,27.40
2023-02-15T03:44:21.579Z,31.45
2023-02-15T03:46:57.704Z,32.90
2023-02-15T03:49:31.279Z,32.15
2023-02-15T03:52:03.553Z,33.73
2023-02-15T03:54:47.584Z,33.13
2023-02-15T03:57:46.502Z,32.73
2023-02-15T04:00:37.970Z,33.38
2023-02-15T04:03:26.416Z,34.67
2023-02-15T04:05:57.032Z,33.63
2023-02-15T04:08:29.220Z,33.40
2023-02-15T04:10:59.832Z,32.33
2023-02-15T04:13:36.676Z,31.12
2023-02-15T04:16:08.601Z,31.57
2023-02-15T04:18:59.696Z,33.00
2023-02-15T04:21:50.365Z,33.95
2023-02-15T04:24:39.092Z,34.20
2023-02-15T04:27:10.078Z,36.68
2023-02-15T04:29:40.610Z,36.60
2023-02-15T04:32:11.224Z,36.85
2023-02-15T04:34:41.898Z,36.30
2023-02-15T04:37:12.595Z,37.53
2023-02-15T04:39:43.242Z,36.28
2023-02-15T04:42:13.809Z,36.00
2023-02-15T04:44:44.807Z,36.20
2023-02-15T04:47:15.441Z,35.17
2023-02-15T04:49:46.206Z,35.78
2023-02-15T04:52:18.797Z,35.38
2023-02-15T04:54:49.428Z,35.43
2023-02-15T04:57:19.983Z,36.13
2023-02-15T04:59:50.579Z,34.25
2023-02-15T05:02:21.600Z,32.23
2023-02-15T05:04:52.272Z,32.42
2023-02-15T05:07:22.848Z,33.70
2023-02-15T05:09:54.061Z,35.48
2023-02-15T05:12:24.700Z,36.38
2023-02-15T05:14:56.665Z,39.38
2023-02-15T05:17:27.308Z,38.05
2023-02-15T05:19:57.941Z,37.90
2023-02-15T05:22:28.564Z,38.10
2023-02-15T05:25:17.044Z,38.15
2023-02-15T05:28:05.893Z,41.40
2023-02-15T05:30:37.317Z,41.75
2023-02-15T05:33:09.841Z,44.10
2023-02-15T05:35:40.542Z,49.88
2023-02-15T05:38:11.301Z,45.55
2023-02-15T05:40:42.108Z,62.90
2023-02-15T05:43:12.690Z,82.75
2023-02-15T05:45:44.749Z,91.95
2023-02-15T05:48:15.387Z,86.45
2023-02-15T05:50:46.705Z,87.57
2023-02-15T05:53:17.323Z,73.37
2023-02-15T05:55:47.913Z,60.48
2023-02-15T05:58:18.534Z,55.30
2023-02-15T06:00:49.486Z,58.17
2023-02-15T06:03:20.085Z,86.50
2023-02-15T06:05:50.788Z,84.40
2023-02-15T06:08:21.768Z,65.83
2023-02-15T06:10:53.568Z,48.68
2023-02-15T06:13:24.122Z,43.10
2023-02-15T06:15:55.570Z,41.00
2023-02-15T06:18:27.737Z,50.88
2023-02-15T06:20:58.377Z,44.48
2023-02-15T06:23:29.142Z,45.17
2023-02-15T06:25:59.853Z,40.55
2023-02-15T06:28:30.757Z,38.98
2023-02-15T06:31:01.528Z,41.53
2023-02-15T06:33:34.109Z,43.02
2023-02-15T06:36:05.212Z,41.80
2023-02-15T06:38:36.035Z,45.15
2023-02-15T06:41:06.634Z,47.53
2023-02-15T06:43:37.570Z,43.02
2023-02-15T06:46:08.857Z,34.73
2023-02-15T06:48:39.504Z,31.62
2023-02-15T06:51:10.308Z,28.98
2023-02-15T06:53:42.452Z,26.57
2023-02-15T06:56:14.270Z,25.85
2023-02-15T06:58:47.105Z,32.23
2023-02-15T07:01:18.435Z,29.92
2023-02-15T07:03:49.007Z,28.05
2023-02-15T07:06:19.766Z,25.72
2023-02-15T07:08:50.568Z,25.70
2023-02-15T07:11:39.324Z,26.25
2023-02-15T07:14:09.896Z,30.10
2023-02-15T07:16:40.710Z,25.30
2023-02-15T07:19:11.661Z,23.65
2023-02-15T07:21:42.284Z,24.35
2023-02-15T07:24:18.901Z,24.60
2023-02-15T07:26:49.523Z,23.27
2023-02-15T07:29:20.340Z,23.27
2023-02-15T07:31:51.082Z,23.60
2023-02-15T07:34:21.759Z,22.73
2023-02-15T07:36:55.274Z,23.10
2023-02-15T07:39:26.338Z,22.02
2023-02-15T07:41:57.290Z,23.85
2023-02-15T07:44:27.848Z,25.43
2023-02-15T07:47:00.843Z,24.70
2023-02-15T07:49:31.958Z,23.12
2023-02-15T07:52:04.646Z,23.30
2023-02-15T07:54:35.304Z,22.07
2023-02-15T07:57:06.373Z,23.73
2023-02-15T07:59:36.900Z,22.07
2023-02-15T08:02:12.160Z,22.50
2023-02-15T08:04:43.049Z,23.05
2023-02-15T08:07:14.667Z,24.47
2023-02-15T08:09:45.220Z,25.57
2023-02-15T08:12:16.563Z,25.95
2023-02-15T08:14:47.696Z,26.27
2023-02-15T08:17:18.284Z,25.82
2023-02-15T08:19:48.983Z,26.33
2023-02-15T08:22:19.541Z,26.07
2023-02-15T08:24:50.293Z,27.60
2023-02-15T08:27:23.309Z,28.40
2023-02-15T08:29:55.183Z,31.95
2023-02-15T08:32:27.200Z,33.08
2023-02-15T08:34:58.012Z,32.17
2023-02-15T08:37:28.939Z,32.85
2023-02-15T08:39:59.545Z,32.90
2023-02-15T08:42:30.216Z,32.95
2023-02-15T08:45:00.826Z,33.92
2023-02-15T08:47:31.513Z,32.70
2023-02-15T08:50:02.116Z,30.62
2023-02-15T08:52:44.893Z,30.25
2023-02-15T08:55:12.176Z,31.07
2023-02-15T08:57:44.415Z,30.62
2023-02-15T09:00:16.012Z,30.12
2023-02-15T09:02:46.574Z,29.27
2023-02-15T09:05:17.365Z,27.87
2023-02-15T09:07:50.272Z,28.10
2023-02-15T09:10:23.746Z,28.35
2023-02-15T09:12:55.909Z,28.65
2023-02-15T09:15:29.091Z,26.25
2023-02-15T09:18:03.726Z,27.60
2023-02-15T09:20:40.239Z,29.02
2023-02-15T09:25:45.910Z,31.55
2023-02-15T09:28:20.880Z,30.70
2023-02-15T09:30:54.508Z,30.27
2023-02-15T09:33:38.012Z,31.52
2023-02-15T09:36:19.012Z,32.58
2023-02-15T09:38:54.400Z,32.95
2023-02-15T09:41:46.376Z,33.00
2023-02-15T09:44:34.758Z,32.88
2023-02-15T09:47:18.626Z,32.25
2023-02-15T09:50:06.653Z,31.48
2023-02-15T09:52:59.788Z,31.75
2023-02-15T09:55:38.761Z,33.10
2023-02-15T09:58:42.917Z,32.48
2023-02-15T10:01:28.611Z,33.48
2023-02-15T10:04:22.881Z,33.18
2023-02-15T10:07:27.418Z,32.38
2023-02-15T10:10:08.909Z,32.13
2023-02-15T10:12:51.032Z,34.50
2023-02-15T10:15:32.187Z,35.28
2023-02-15T10:18:15.753Z,34.85
2023-02-15T10:21:05.584Z,35.92
2023-02-15T10:24:00.935Z,38.15
2023-02-15T10:26:47.880Z,38.65
2023-02-15T10:29:43.868Z,38.23
2023-02-15T10:32:28.223Z,39.73
2023-02-15T10:35:18.485Z,40.08
2023-02-15T10:37:56.313Z,37.95
2023-02-15T10:40:33.213Z,40.15
2023-02-15T10:43:10.889Z,31.23
2023-02-15T10:46:04.016Z,39.40
2023-02-15T10:48:54.743Z,39.48
2023-02-15T10:51:31.334Z,39.55
2023-02-15T10:54:15.908Z,39.98
2023-02-15T10:56:50.304Z,44.13
2023-02-15T10:59:39.933Z,39.25
2023-02-15T11:02:19.960Z,40.40
2023-02-15T11:05:28.525Z,40.43
2023-02-15T11:08:02.688Z,40.20
2023-02-15T11:10:44.503Z,40.23
2023-02-15T11:13:24.272Z,40.63
2023-02-15T11:16:05.298Z,39.60
2023-02-15T11:19:01.297Z,40.38
2023-02-15T11:21:39.306Z,44.25
2023-02-15T11:24:22.509Z,39.23
2023-02-15T11:27:06.647Z,37.93
2023-02-15T11:29:51.654Z,38.95
2023-02-15T11:32:36.748Z,38.83
2023-02-15T11:35:15.387Z,38.85
2023-02-15T11:37:52.627Z,37.55
2023-02-15T11:40:56.217Z,39.20
2023-02-15T11:44:04.275Z,39.53
2023-02-15T11:46:36.460Z,39.95
2023-02-15T11:49:37.230Z,41.00
2023-02-15T11:52:12.522Z,42.03
2023-02-15T11:54:55.355Z,39.38
2023-02-15T11:57:34.112Z,37.42
2023-02-15T12:00:16.164Z,40.05
2023-02-15T12:02:54.660Z,40.67
2023-02-15T12:05:28.315Z,38.30
2023-02-15T12:08:09.638Z,37.13
2023-02-15T12:10:45.731Z,37.48
2023-02-15T12:13:24.365Z,37.53
2023-02-15T12:16:01.763Z,35.33
2023-02-15T12:18:48.400Z,37.65
2023-02-15T12:21:37.832Z,35.08
2023-02-15T12:24:31.972Z,40.30
2023-02-15T12:27:27.527Z,40.08
2023-02-15T12:30:12.395Z,44.65
2023-02-15T12:33:04.568Z,38.63
2023-02-15T12:35:41.049Z,37.88
2023-02-15T12:38:15.529Z,37.88
2023-02-15T12:41:03.992Z,38.08
2023-02-15T12:43:40.639Z,38.70
2023-02-15T12:46:27.779Z,41.40
2023-02-15T12:49:21.764Z,37.83
2023-02-15T12:51:59.423Z,38.13
2023-02-15T12:54:43.465Z,36.20
2023-02-15T12:57:32.691Z,38.20
2023-02-15T13:00:07.968Z,38.70
2023-02-15T13:02:50.980Z,38.23
2023-02-15T13:05:39.681Z,35.85
2023-02-15T13:08:17.290Z,35.60
2023-02-15T13:11:11.903Z,35.30
2023-02-15T13:14:03.134Z,35.90
2023-02-15T13:16:38.812Z,36.28
2023-02-15T13:19:21.758Z,36.30
2023-02-15T13:21:57.522Z,38.78
2023-02-15T13:24:39.299Z,37.15
2023-02-15T13:27:19.440Z,38.20
2023-02-15T13:30:02.259Z,38.00
2023-02-15T13:32:38.738Z,37.05
2023-02-15T13:35:19.120Z,37.60
2023-02-15T13:38:23.253Z,38.02
2023-02-15T13:40:58.482Z,37.78
2023-02-15T13:43:49.209Z,36.73
2023-02-15T13:46:36.867Z,39.05
2023-02-15T13:49:35.862Z,39.35
2023-02-15T13:52:16.300Z,36.68
2023-02-15T13:58:12.283Z,40.67
2023-02-15T14:01:02.679Z,38.08
2023-02-15T14:03:49.143Z,36.25
2023-02-15T14:06:44.751Z,35.90
2023-02-15T14:09:53.576Z,36.33
2023-02-15T14:12:47.035Z,35.88
2023-02-15T14:15:31.965Z,37.05
2023-02-15T14:18:37.912Z,37.17
2023-02-15T14:21:16.625Z,41.15
2023-02-15T14:24:12.559Z,37.30
2023-02-15T14:26:56.003Z,36.80
2023-02-15T14:29:57.815Z,36.15
2023-02-15T14:32:37.258Z,38.28
2023-02-15T14:35:18.016Z,36.25
2023-02-15T14:38:05.310Z,37.00
2023-02-15T14:41:04.485Z,38.40
2023-02-15T14:43:54.882Z,36.55
2023-02-15T14:46:38.687Z,35.83
2023-02-15T14:49:32.097Z,37.63
2023-02-15T14:52:09.813Z,38.00
2023-02-15T14:54:46.471Z,39.53
2023-02-15T14:57:21.206Z,36.35
2023-02-15T15:00:02.698Z,40.85
2023-02-15T15:02:54.555Z,41.35
2023-02-15T15:05:37.973Z,39.20
2023-02-15T15:08:15.647Z,41.92
2023-02-15T15:10:52.626Z,41.83
2023-02-15T15:13:38.851Z,43.75
2023-02-15T15:16:29.748Z,44.23
2023-02-15T15:19:01.524Z,43.95
2023-02-15T15:21:54.630Z,43.52
2023-02-15T15:24:43.479Z,45.33
2023-02-15T15:27:44.354Z,43.87
2023-02-15T15:30:26.844Z,45.60
2023-02-15T15:33:00.624Z,46.35
2023-02-15T15:35:34.098Z,48.48
2023-02-15T15:38:33.693Z,46.68
2023-02-15T15:41:22.317Z,49.55
2023-02-15T15:44:01.695Z,51.33
2023-02-15T15:46:47.230Z,53.45
2023-02-15T15:51:52.673Z,55.35
2023-02-15T15:54:26.242Z,55.15
2023-02-15T15:57:01.266Z,53.92
2023-02-15T15:59:36.777Z,55.40
2023-02-15T16:02:09.639Z,51.75
2023-02-15T16:04:40.193Z,53.05
2023-02-15T16:07:22.286Z,52.17
2023-02-15T16:10:05.195Z,48.92
2023-02-15T16:12:41.509Z,50.78
2023-02-15T16:15:21.251Z,52.67
2023-02-15T16:17:56.107Z,51.48
2023-02-15T16:20:35.568Z,61.18
2023-02-15T16:23:24.473Z,62.38
2023-02-15T16:25:59.295Z,59.25
2023-02-15T16:28:31.366Z,55.23
2023-02-15T16:31:16.563Z,52.73
2023-02-15T16:33:47.809Z,52.73
2023-02-15T16:36:26.621Z,51.20
2023-02-15T16:39:03.201Z,54.88
2023-02-15T16:41:33.877Z,51.53
2023-02-15T16:44:07.335Z,52.78
2023-02-15T16:46:42.197Z,52.93
2023-02-15T16:49:27.656Z,51.42
2023-02-15T16:52:09.865Z,50.88
2023-02-15T16:54:41.924Z,51.75
2023-02-15T16:57:24.587Z,52.00
2023-02-15T16:59:59.758Z,50.88
2023-02-15T17:02:54.344Z,53.55
2023-02-15T17:05:19.640Z,55.70
2023-02-15T17:08:08.399Z,62.58
2023-02-15T17:10:42.981Z,59.08
2023-02-15T17:13:15.811Z,57.10
2023-02-15T17:16:04.986Z,58.33
2023-02-15T17:18:44.724Z,58.52
2023-02-15T17:21:20.910Z,58.10
2023-02-15T17:23:53.956Z,58.50
2023-02-15T17:26:27.423Z,57.85
2023-02-15T17:29:01.327Z,55.75
2023-02-15T17:31:35.196Z,57.10
2023-02-15T17:34:06.234Z,53.95
2023-02-15T17:36:36.855Z,55.10
2023-02-15T17:39:12.231Z,54.18
2023-02-15T17:44:15.588Z,58.70
2023-02-15T17:46:46.433Z,53.60
2023-02-15T17:49:19.978Z,54.75
2023-02-15T17:51:50.556Z,56.23
2023-02-15T17:54:38.877Z,55.65
2023-02-15T17:57:14.865Z,53.98
2023-02-15T18:00:04.634Z,56.35
2023-02-15T18:02:55.138Z,55.10
2023-02-15T18:05:44.904Z,52.62
2023-02-15T18:08:36.410Z,52.55
2023-02-15T18:11:25.253Z,51.08
2023-02-15T18:13:57.389Z,53.80
2023-02-15T18:16:33.525Z,53.63
2023-02-15T18:19:06.357Z,53.25
2023-02-15T18:21:36.957Z,51.40
2023-02-15T18:24:09.269Z,52.13
2023-02-15T18:26:40.551Z,53.25
2023-02-15T18:29:11.638Z,53.30
2023-02-15T18:31:43.384Z,55.00
2023-02-15T18:34:25.533Z,53.73
2023-02-15T18:36:57.393Z,55.08
2023-02-15T18:39:44.601Z,56.02
2023-02-15T18:42:24.605Z,57.30
2023-02-15T18:44:57.693Z,56.13
2023-02-15T18:47:28.737Z,58.90
2023-02-15T18:49:59.524Z,62.53
2023-02-15T18:52:33.032Z,63.70
2023-02-15T18:55:08.303Z,66.62
2023-02-15T18:57:38.897Z,67.35
2023-02-15T19:00:17.897Z,65.40
2023-02-15T19:02:49.318Z,64.62
2023-02-15T19:05:20.211Z,60.00
2023-02-15T19:07:51.999Z,70.25
2023-02-15T19:10:28.916Z,80.57
2023-02-15T19:12:59.876Z,63.65
2023-02-15T19:15:32.850Z,58.70
2023-02-15T19:18:03.443Z,57.60
2023-02-15T19:20:36.969Z,59.63
2023-02-15T19:23:20.919Z,68.97
2023-02-15T19:25:52.967Z,71.07
2023-02-15T19:28:32.698Z,61.90
2023-02-15T19:31:03.432Z,60.83
2023-02-15T19:33:34.806Z,57.85
2023-02-15T19:36:07.593Z,57.98
2023-02-15T19:38:38.164Z,57.15
2023-02-15T19:41:12.064Z,55.50
2023-02-15T19:43:42.763Z,56.70
2023-02-15T19:46:16.317Z,59.80
2023-02-15T19:48:48.904Z,54.58
2023-02-15T19:51:21.023Z,54.77
2023-02-15T19:53:52.010Z,52.93
2023-02-15T19:56:24.581Z,52.25
2023-02-15T19:58:59.491Z,54.80
2023-02-15T20:01:31.225Z,53.50
2023-02-15T20:04:03.326Z,61.55
2023-02-15T20:06:35.610Z,59.40
2023-02-15T20:09:06.759Z,65.47
2023-02-15T20:11:37.565Z,62.43
2023-02-15T20:14:11.176Z,62.75
2023-02-15T20:16:41.789Z,59.77
2023-02-15T20:19:13.482Z,55.58
2023-02-15T20:21:46.809Z,58.33
2023-02-15T20:24:21.361Z,57.00
2023-02-15T20:26:52.061Z,54.77
2023-02-15T20:29:24.265Z,62.08
2023-02-15T20:31:55.605Z,57.60
2023-02-15T20:34:27.706Z,57.55
2023-02-15T20:36:59.009Z,57.90
2023-02-15T20:39:29.587Z,56.40
2023-02-15T20:42:00.249Z,57.80
2023-02-15T20:44:34.692Z,60.48
2023-02-15T20:47:05.272Z,45.77
2023-02-15T20:49:38.230Z,61.42
2023-02-15T20:52:12.276Z,54.63
2023-02-15T20:54:43.392Z,55.25
2023-02-15T20:57:14.972Z,53.00
2023-02-15T20:59:46.278Z,58.05
2023-02-15T21:02:24.061Z,58.95
2023-02-15T21:04:56.018Z,56.83
2023-02-15T21:07:27.774Z,60.38
2023-02-15T21:10:00.774Z,59.15
2023-02-15T21:12:31.885Z,58.87
2023-02-15T21:15:02.529Z,62.67
2023-02-15T21:17:33.325Z,84.05
2023-02-15T21:20:04.190Z,99.32
2023-02-15T21:22:35.052Z,105.05
2023-02-15T21:25:06.104Z,111.45
2023-02-15T21:27:38.144Z,112.08
2023-02-15T21:30:18.755Z,109.15
2023-02-15T21:32:49.505Z,89.62
2023-02-15T21:35:25.158Z,75.40
2023-02-15T21:37:57.368Z,68.30
2023-02-15T21:40:31.579Z,65.95
2023-02-15T21:43:20.325Z,67.27
2023-02-15T21:46:09.306Z,61.85
2023-02-15T21:48:40.756Z,61.42
2023-02-15T21:51:30.005Z,64.47
2023-02-15T21:54:00.615Z,71.02
2023-02-15T21:56:32.872Z,79.07
2023-02-15T21:59:03.542Z,82.57
2023-02-15T22:01:34.452Z,78.97
2023-02-15T22:04:07.126Z,69.37
2023-02-15T22:06:39.377Z,62.98
2023-02-15T22:09:18.892Z,65.70
2023-02-15T22:11:52.378Z,65.08
2023-02-15T22:14:44.651Z,69.97
2023-02-15T22:17:21.504Z,69.95
2023-02-15T22:19:53.198Z,65.67
2023-02-15T22:22:26.258Z,67.82
2023-02-15T22:24:58.996Z,68.02
2023-02-15T22:27:33.004Z,76.97
2023-02-15T22:30:04.441Z,65.60
2023-02-15T22:32:36.910Z,56.10
2023-02-15T22:35:11.652Z,56.40
2023-02-15T22:37:42.446Z,57.55
2023-02-15T22:40:16.163Z,58.17
2023-02-15T22:42:52.179Z,62.25
2023-02-15T22:45:25.678Z,66.67
2023-02-15T22:48:01.669Z,70.47
2023-02-15T22:50:38.297Z,75.75
2023-02-15T22:53:11.513Z,77.40
2023-02-15T22:55:42.097Z,83.40
2023-02-15T22:58:24.248Z,84.30
2023-02-15T23:00:58.603Z,85.57
2023-02-15T23:03:31.606Z,81.65
2023-02-15T23:06:02.463Z,78.30
2023-02-15T23:08:33.774Z,77.22
2023-02-15T23:11:04.810Z,82.15
2023-02-15T23:13:35.730Z,83.07
2023-02-15T23:16:08.904Z,83.52
2023-02-15T23:18:46.778Z,67.00
2023-02-15T23:21:29.245Z,60.03
2023-02-15T23:24:02.864Z,61.48
2023-02-15T23:26:33.863Z,67.72
2023-02-15T23:29:04.989Z,66.75
2023-02-15T23:31:38.789Z,64.12
2023-02-15T23:34:21.226Z,68.87
2023-02-15T23:36:52.419Z,81.30
2023-02-15T23:39:43.669Z,75.28
2023-02-15T23:42:17.228Z,69.58
2023-02-15T23:44:50.762Z,77.25
2023-02-15T23:47:48.720Z,125.80
2023-02-15T23:50:24.616Z,88.45
2023-02-15T23:52:56.831Z,83.92
2023-02-15T23:55:31.572Z,71.05
2023-02-15T23:58:05.607Z,70.00
